Аэропорт: Нариманово. Астрахань

ICAO: URWA

METAR:
2020-02-20 08:00:00
URWA 200800Z 02002MPS 340V100 7000 OVC003 01/01 Q1019 R09/190060 NOSIG RMK OBST OBSC QFE766/1022
METAR:
2020-02-20 05:00:00
TAF URWA 200500Z 2006/2015 02003G08MPS 0500 FG OVC002 TEMPO 2006/2008 3100 BR BKN005 BECMG 2008/2009 5000 BR BKN011